createdAt,value
2023-03-17T00:01:54.175Z,96438.97
2023-03-17T00:04:21.726Z,96442.06
2023-03-17T00:06:48.729Z,96444.88
2023-03-17T00:09:17.416Z,96445.09
2023-03-17T00:11:44.668Z,96445.34
2023-03-17T00:14:11.208Z,96446.19
2023-03-17T00:16:39.091Z,96444.53
2023-03-17T00:19:05.571Z,96437.81
2023-03-17T00:21:33.092Z,96443.94
2023-03-17T00:24:00.354Z,96432.84
2023-03-17T00:26:27.684Z,96440.16
2023-03-17T00:28:55.099Z,96442.75
2023-03-17T00:31:23.553Z,96438.06
2023-03-17T00:33:52.282Z,96436.16
2023-03-17T00:36:20.264Z,96437.56
2023-03-17T00:38:47.113Z,96440.88
2023-03-17T00:41:13.618Z,96444.53
2023-03-17T00:43:41.060Z,96441.34
2023-03-17T00:46:14.921Z,96433.09
2023-03-17T00:48:43.497Z,96431.69
2023-03-17T00:51:11.417Z,96438.75
2023-03-17T00:53:38.247Z,96431.09
2023-03-17T00:56:06.485Z,96428.84
2023-03-17T00:58:34.017Z,96436.28
2023-03-17T01:01:01.029Z,96436.41
2023-03-17T01:03:28.062Z,96438.75
2023-03-17T01:05:56.981Z,96441.34
2023-03-17T01:08:24.028Z,96442.50
2023-03-17T01:10:50.490Z,96450.31
2023-03-17T01:13:17.014Z,96443.81
2023-03-17T01:15:45.529Z,96443.34
2023-03-17T01:18:13.261Z,96442.31
2023-03-17T01:20:40.772Z,96447.72
2023-03-17T01:23:07.238Z,96451.50
2023-03-17T01:25:33.812Z,96445.59
2023-03-17T01:28:00.316Z,96454.19
2023-03-17T01:30:27.562Z,96450.19
2023-03-17T01:32:55.669Z,96451.25
2023-03-17T01:35:23.034Z,96453.84
2023-03-17T01:37:50.592Z,96461.03
2023-03-17T01:40:19.598Z,96463.03
2023-03-17T01:42:54.270Z,96462.56
2023-03-17T01:45:47.233Z,96463.59
2023-03-17T01:48:13.726Z,96458.53
2023-03-17T01:50:41.137Z,96468.91
2023-03-17T01:53:07.617Z,96466.44
2023-03-17T01:55:34.483Z,96461.47
2023-03-17T01:58:01.220Z,96445.56
2023-03-17T02:00:27.732Z,96439.06
2023-03-17T02:02:56.226Z,96434.00
2023-03-17T02:05:27.073Z,96446.00
2023-03-17T02:07:54.498Z,96443.66
2023-03-17T02:10:22.168Z,96444.59
2023-03-17T02:12:50.996Z,96444.81
2023-03-17T02:15:17.477Z,96447.75
2023-03-17T02:17:43.985Z,96439.06
2023-03-17T02:20:17.212Z,96448.34
2023-03-17T02:22:53.865Z,96445.63
2023-03-17T02:25:21.567Z,96451.91
2023-03-17T02:27:50.305Z,96456.38
2023-03-17T02:30:19.188Z,96453.78
2023-03-17T02:32:45.878Z,96445.75
2023-03-17T02:35:13.035Z,96450.22
2023-03-17T02:37:39.916Z,96446.22
2023-03-17T02:40:06.929Z,96438.91
2023-03-17T02:42:34.142Z,96439.97
2023-03-17T02:45:00.604Z,96441.84
2023-03-17T02:47:27.718Z,96445.16
2023-03-17T02:49:54.239Z,96433.94
2023-03-17T02:52:20.888Z,96439.13
2023-03-17T02:54:47.348Z,96434.19
2023-03-17T02:57:13.786Z,96434.19
2023-03-17T02:59:40.417Z,96440.28
2023-03-17T03:02:06.912Z,96437.25
2023-03-17T03:04:33.419Z,96439.13
2023-03-17T03:07:00.438Z,96439.34
2023-03-17T03:09:27.352Z,96438.53
2023-03-17T03:11:53.833Z,96440.75
2023-03-17T03:14:20.303Z,96440.75
2023-03-17T03:16:46.961Z,96443.72
2023-03-17T03:19:13.420Z,96438.91
2023-03-17T03:21:39.976Z,96439.13
2023-03-17T03:24:06.595Z,96445.16
2023-03-17T03:26:33.045Z,96441.47
2023-03-17T03:29:00.366Z,96454.06
2023-03-17T03:31:27.251Z,96457.00
2023-03-17T03:33:54.090Z,96451.25
2023-03-17T03:36:20.653Z,96453.72
2023-03-17T03:38:47.281Z,96458.41
2023-03-17T03:41:14.286Z,96463.34
2023-03-17T03:43:41.425Z,96462.84
2023-03-17T03:46:08.078Z,96463.81
2023-03-17T03:48:34.734Z,96467.31
2023-03-17T03:51:02.048Z,96468.50
2023-03-17T03:53:29.151Z,96468.50
2023-03-17T03:55:56.120Z,96463.53
2023-03-17T03:58:22.596Z,96465.38
2023-03-17T04:00:49.122Z,96461.88
2023-03-17T04:03:16.056Z,96469.91
2023-03-17T04:05:42.886Z,96473.47
2023-03-17T04:08:09.405Z,96469.66
2023-03-17T04:10:35.922Z,96459.72
2023-03-17T04:13:02.351Z,96469.38
2023-03-17T04:15:28.839Z,96466.81
2023-03-17T04:17:55.667Z,96464.41
2023-03-17T04:20:22.264Z,96476.06
2023-03-17T04:22:48.752Z,96476.16
2023-03-17T04:25:15.590Z,96482.16
2023-03-17T04:27:42.484Z,96482.03
2023-03-17T04:30:10.691Z,96472.41
2023-03-17T04:32:37.304Z,96474.78
2023-03-17T04:35:03.920Z,96470.66
2023-03-17T04:37:32.301Z,96469.94
2023-03-17T04:39:59.883Z,96465.91
2023-03-17T04:42:26.628Z,96463.22
2023-03-17T04:44:53.079Z,96462.16
2023-03-17T04:47:19.511Z,96459.22
2023-03-17T04:49:46.175Z,96452.66
2023-03-17T04:52:12.743Z,96452.19
2023-03-17T04:54:39.263Z,96454.88
2023-03-17T04:57:06.018Z,96466.91
2023-03-17T04:59:32.497Z,96472.91
2023-03-17T05:01:58.968Z,96484.94
2023-03-17T05:04:31.649Z,96478.81
2023-03-17T05:06:58.713Z,96474.34
2023-03-17T05:09:25.613Z,96469.44
2023-03-17T05:11:52.223Z,96474.19
2023-03-17T05:14:18.688Z,96470.88
2023-03-17T05:16:47.484Z,96476.38
2023-03-17T05:19:13.981Z,96486.84
2023-03-17T05:21:40.777Z,96479.28
2023-03-17T05:24:07.264Z,96486.03
2023-03-17T05:26:33.726Z,96488.78
2023-03-17T05:29:00.307Z,96484.19
2023-03-17T05:31:26.795Z,96480.06
2023-03-17T05:33:53.609Z,96473.00
2023-03-17T05:36:21.209Z,96479.63
2023-03-17T05:38:47.647Z,96484.81
2023-03-17T05:41:14.107Z,96494.09
2023-03-17T05:43:41.322Z,96504.59
2023-03-17T05:46:08.277Z,96493.31
2023-03-17T05:48:34.927Z,96493.44
2023-03-17T05:51:01.776Z,96499.94
2023-03-17T05:53:28.660Z,96504.28
2023-03-17T05:55:55.271Z,96495.69
2023-03-17T05:58:22.143Z,96486.63
2023-03-17T06:00:48.604Z,96492.66
2023-03-17T06:03:15.202Z,96493.50
2023-03-17T06:05:41.941Z,96493.50
2023-03-17T06:08:08.579Z,96500.56
2023-03-17T06:10:35.279Z,96488.41
2023-03-17T06:13:03.887Z,96487.13
2023-03-17T06:15:31.241Z,96496.34
2023-03-17T06:17:57.907Z,96484.91
2023-03-17T06:20:24.367Z,96475.25
2023-03-17T06:23:03.414Z,96486.09
2023-03-17T06:25:31.163Z,96495.31
2023-03-17T06:27:57.894Z,96496.72
2023-03-17T06:30:24.496Z,96497.66
2023-03-17T06:32:50.989Z,96512.06
2023-03-17T06:35:18.157Z,96507.56
2023-03-17T06:37:44.626Z,96511.59
2023-03-17T06:40:12.643Z,96506.19
2023-03-17T06:42:39.085Z,96501.72
2023-03-17T06:45:05.855Z,96504.06
2023-03-17T06:47:32.316Z,96500.31
2023-03-17T06:49:58.735Z,96499.84
2023-03-17T06:52:25.386Z,96501.97
2023-03-17T06:54:51.991Z,96506.81
2023-03-17T06:57:18.483Z,96502.94
2023-03-17T06:59:45.846Z,96502.25
2023-03-17T07:02:12.780Z,96494.69
2023-03-17T07:04:39.549Z,96498.47
2023-03-17T07:07:06.371Z,96494.44
2023-03-17T07:09:34.363Z,96497.28
2023-03-17T07:12:05.168Z,96497.75
2023-03-17T07:14:32.870Z,96493.00
2023-03-17T07:17:00.003Z,96495.13
2023-03-17T07:19:27.322Z,96492.19
2023-03-17T07:21:55.866Z,96498.41
2023-03-17T07:24:22.708Z,96490.00
2023-03-17T07:26:49.354Z,96490.25
2023-03-17T07:29:16.574Z,96486.09
2023-03-17T07:31:44.107Z,96493.97
2023-03-17T07:34:11.317Z,96486.22
2023-03-17T07:36:37.779Z,96492.34
2023-03-17T07:39:04.455Z,96488.03
2023-03-17T07:41:30.927Z,96489.19
2023-03-17T07:43:57.488Z,96497.88
2023-03-17T07:46:24.217Z,96502.34
2023-03-17T07:48:51.091Z,96502.16
2023-03-17T07:51:19.145Z,96504.00
2023-03-17T07:53:46.463Z,96504.06
2023-03-17T07:56:13.265Z,96505.66
2023-03-17T07:58:40.364Z,96494.88
2023-03-17T08:01:06.941Z,96487.56
2023-03-17T08:03:34.066Z,96488.44
2023-03-17T08:06:00.827Z,96481.47
2023-03-17T08:08:29.611Z,96476.16
2023-03-17T08:11:03.626Z,96465.88
2023-03-17T08:13:30.725Z,96457.13
2023-03-17T08:15:57.506Z,96461.53
2023-03-17T08:18:24.077Z,96461.38
2023-03-17T08:20:51.430Z,96452.88
2023-03-17T08:23:20.709Z,96447.53
2023-03-17T08:25:47.837Z,96444.75
2023-03-17T08:28:15.434Z,96444.47
2023-03-17T08:30:42.985Z,96443.34
2023-03-17T08:33:09.904Z,96441.22
2023-03-17T08:35:37.400Z,96444.44
2023-03-17T08:38:04.189Z,96442.44
2023-03-17T08:40:31.498Z,96442.75
2023-03-17T08:42:58.238Z,96445.50
2023-03-17T08:45:24.871Z,96427.31
2023-03-17T08:47:51.322Z,96440.34
2023-03-17T08:50:20.137Z,96444.72
2023-03-17T08:52:46.940Z,96443.22
2023-03-17T08:55:14.529Z,96444.69
2023-03-17T08:57:41.102Z,96436.50
2023-03-17T09:00:11.057Z,96445.50
2023-03-17T09:02:43.160Z,96441.59
2023-03-17T09:05:11.536Z,96442.75
2023-03-17T09:07:38.410Z,96449.88
2023-03-17T09:10:05.792Z,96454.72
2023-03-17T09:12:34.145Z,96445.41
2023-03-17T09:15:00.851Z,96452.47
2023-03-17T09:17:27.344Z,96451.53
2023-03-17T09:19:53.821Z,96438.13
2023-03-17T09:22:20.382Z,96436.34
2023-03-17T09:24:46.856Z,96440.97
2023-03-17T09:27:13.600Z,96448.03
2023-03-17T09:29:41.251Z,96430.34
2023-03-17T09:32:08.714Z,96429.22
2023-03-17T09:34:35.867Z,96419.88
2023-03-17T09:37:02.320Z,96427.94
2023-03-17T09:39:28.828Z,96421.38
2023-03-17T09:41:57.111Z,96424.00
2023-03-17T09:44:42.441Z,96430.25
2023-03-17T09:47:18.187Z,96425.81
2023-03-17T09:49:49.375Z,96428.28
2023-03-17T09:52:18.649Z,96415.13
2023-03-17T09:54:46.780Z,96416.13
2023-03-17T09:57:18.266Z,96413.81
2023-03-17T09:59:55.111Z,96419.06
2023-03-17T10:02:29.835Z,96408.50
2023-03-17T10:04:57.322Z,96409.84
2023-03-17T10:07:30.573Z,96405.72
2023-03-17T10:10:00.670Z,96411.28
2023-03-17T10:12:27.208Z,96409.47
2023-03-17T10:14:55.965Z,96408.66
2023-03-17T10:17:31.641Z,96408.81
2023-03-17T10:20:00.676Z,96402.19
2023-03-17T10:22:42.651Z,96404.63
2023-03-17T10:25:15.245Z,96399.31
2023-03-17T10:27:42.913Z,96400.41
2023-03-17T10:30:17.259Z,96399.72
2023-03-17T10:32:44.580Z,96400.66
2023-03-17T10:35:11.543Z,96391.75
2023-03-17T10:37:38.130Z,96389.47
2023-03-17T10:40:10.161Z,96378.88
2023-03-17T10:42:45.995Z,96382.94
2023-03-17T10:45:15.507Z,96371.63
2023-03-17T10:47:47.218Z,96369.66
2023-03-17T10:50:20.461Z,96368.16
2023-03-17T10:52:47.510Z,96370.53
2023-03-17T10:55:20.267Z,96359.34
2023-03-17T10:57:51.261Z,96353.41
2023-03-17T11:00:20.094Z,96351.41
2023-03-17T11:02:57.901Z,96333.09
2023-03-17T11:05:26.654Z,96329.09
2023-03-17T11:08:06.628Z,96322.66
2023-03-17T11:10:36.457Z,96326.22
2023-03-17T11:13:03.040Z,96324.50
2023-03-17T11:15:32.505Z,96323.03
2023-03-17T11:18:01.165Z,96320.88
2023-03-17T11:20:33.426Z,96319.25
2023-03-17T11:22:59.859Z,96304.31
2023-03-17T11:25:27.286Z,96310.16
2023-03-17T11:28:16.406Z,96302.00
2023-03-17T11:30:42.833Z,96301.19
2023-03-17T11:33:18.132Z,96302.09
2023-03-17T11:35:44.608Z,96303.56
2023-03-17T11:38:21.036Z,96302.28
2023-03-17T11:40:59.693Z,96302.66
2023-03-17T11:43:35.483Z,96295.00
2023-03-17T11:46:11.163Z,96294.56
2023-03-17T11:48:40.717Z,96281.38
2023-03-17T11:51:13.448Z,96283.00
2023-03-17T11:53:58.494Z,96274.19
2023-03-17T11:56:37.264Z,96273.88
2023-03-17T11:59:05.382Z,96266.56
2023-03-17T12:02:04.783Z,96257.72
2023-03-17T12:04:34.476Z,96255.53
2023-03-17T12:07:08.892Z,96256.25
2023-03-17T12:09:41.109Z,96256.09
2023-03-17T12:12:10.110Z,96250.56
2023-03-17T12:14:42.789Z,96251.22
2023-03-17T12:17:12.692Z,96258.56
2023-03-17T12:19:54.401Z,96246.81
2023-03-17T12:22:21.287Z,96255.25
2023-03-17T12:24:51.432Z,96259.50
2023-03-17T12:27:29.317Z,96260.78
2023-03-17T12:29:59.028Z,96254.75
2023-03-17T12:32:39.536Z,96256.56
2023-03-17T12:35:23.938Z,96260.97
2023-03-17T12:37:50.423Z,96241.06
2023-03-17T12:40:20.296Z,96235.53
2023-03-17T12:43:12.934Z,96225.44
2023-03-17T12:45:58.315Z,96224.34
2023-03-17T12:48:43.344Z,96217.47
2023-03-17T12:51:28.330Z,96209.16
2023-03-17T12:53:55.287Z,96213.84
2023-03-17T12:56:29.771Z,96209.06
2023-03-17T12:59:02.889Z,96206.22
2023-03-17T13:01:32.531Z,96205.91
2023-03-17T13:04:04.964Z,96201.09
2023-03-17T13:06:34.801Z,96192.44
2023-03-17T13:09:21.714Z,96194.47
2023-03-17T13:11:48.594Z,96196.56
2023-03-17T13:14:27.145Z,96195.84
2023-03-17T13:17:04.786Z,96202.03
2023-03-17T13:19:32.544Z,96193.09
2023-03-17T13:22:05.630Z,96197.78
2023-03-17T13:24:40.247Z,96191.88
2023-03-17T13:27:10.264Z,96186.34
2023-03-17T13:29:36.854Z,96194.72
2023-03-17T13:32:15.508Z,96202.84
2023-03-17T13:34:46.377Z,96206.50
2023-03-17T13:37:37.899Z,96202.47
2023-03-17T13:40:13.594Z,96190.81
2023-03-17T13:42:54.149Z,96201.59
2023-03-17T13:45:35.871Z,96204.25
2023-03-17T13:48:20.926Z,96195.72
2023-03-17T13:50:47.516Z,96192.69
2023-03-17T13:53:14.879Z,96188.59
2023-03-17T13:55:42.374Z,96192.63
2023-03-17T13:58:11.349Z,96194.25
2023-03-17T14:00:46.863Z,96188.56
2023-03-17T14:03:17.685Z,96182.13
2023-03-17T14:05:48.042Z,96179.28
2023-03-17T14:08:18.462Z,96176.41
2023-03-17T14:10:52.494Z,96163.72
2023-03-17T14:13:24.382Z,96163.06
2023-03-17T14:15:56.517Z,96153.97
2023-03-17T14:18:30.770Z,96160.91
2023-03-17T14:20:58.841Z,96157.66
2023-03-17T14:23:25.808Z,96152.19
2023-03-17T14:25:55.239Z,96165.00
2023-03-17T14:28:25.694Z,96155.28
2023-03-17T14:30:53.931Z,96154.84
2023-03-17T14:33:22.501Z,96158.69
2023-03-17T14:35:50.995Z,96147.53
2023-03-17T14:38:19.977Z,96151.59
2023-03-17T14:40:46.822Z,96147.53
2023-03-17T14:43:13.787Z,96147.47
2023-03-17T14:45:40.272Z,96149.31
2023-03-17T14:48:09.572Z,96141.38
2023-03-17T14:50:36.080Z,96150.09
2023-03-17T14:53:02.636Z,96146.69
2023-03-17T14:55:43.092Z,96154.44
2023-03-17T14:58:17.840Z,96151.59
2023-03-17T15:00:46.642Z,96151.56
2023-03-17T15:03:20.619Z,96148.28
2023-03-17T15:05:47.537Z,96153.53
2023-03-17T15:08:37.917Z,96153.69
2023-03-17T15:11:05.334Z,96152.88
2023-03-17T15:13:38.007Z,96141.28
2023-03-17T15:16:15.172Z,96139.84
2023-03-17T15:18:41.739Z,96145.72
2023-03-17T15:21:31.628Z,96142.06
2023-03-17T15:23:58.064Z,96136.16
2023-03-17T15:26:31.239Z,96138.19
2023-03-17T15:28:58.700Z,96127.41
2023-03-17T15:31:29.407Z,96127.34
2023-03-17T15:33:56.821Z,96133.34
2023-03-17T15:36:32.324Z,96123.94
2023-03-17T15:38:59.437Z,96139.34
2023-03-17T15:41:26.160Z,96131.63
2023-03-17T15:43:53.696Z,96132.06
2023-03-17T15:46:27.643Z,96131.47
2023-03-17T15:48:54.224Z,96132.09
2023-03-17T15:51:20.951Z,96126.59
2023-03-17T15:53:47.447Z,96128.59
2023-03-17T15:56:19.093Z,96125.13
2023-03-17T15:58:49.357Z,96117.41
2023-03-17T16:01:16.564Z,96110.78
2023-03-17T16:03:45.467Z,96119.56
2023-03-17T16:06:15.616Z,96105.84
2023-03-17T16:08:42.143Z,96117.81
2023-03-17T16:11:19.265Z,96109.47
2023-03-17T16:13:46.995Z,96120.94
2023-03-17T16:16:21.521Z,96119.09
2023-03-17T16:18:49.052Z,96119.22
2023-03-17T16:21:17.090Z,96120.34
2023-03-17T16:23:43.799Z,96111.09
2023-03-17T16:26:15.962Z,96109.13
2023-03-17T16:28:44.622Z,96103.69
2023-03-17T16:31:19.320Z,96113.09
2023-03-17T16:33:46.317Z,96114.56
2023-03-17T16:36:14.387Z,96116.84
2023-03-17T16:38:40.943Z,96129.66
2023-03-17T16:41:09.234Z,96123.22
2023-03-17T16:43:37.895Z,96132.75
2023-03-17T16:46:05.722Z,96128.72
2023-03-17T16:48:32.311Z,96125.19
2023-03-17T16:50:58.945Z,96131.91
2023-03-17T16:53:25.690Z,96120.16
2023-03-17T16:55:53.509Z,96120.75
2023-03-17T16:58:19.979Z,96124.56
2023-03-17T17:00:47.561Z,96125.97
2023-03-17T17:03:14.544Z,96122.91
2023-03-17T17:05:41.568Z,96130.50
2023-03-17T17:08:08.435Z,96133.34
2023-03-17T17:10:35.585Z,96134.06
2023-03-17T17:13:02.973Z,96131.66
2023-03-17T17:15:30.503Z,96127.41
2023-03-17T17:17:58.119Z,96127.47
2023-03-17T17:20:28.659Z,96136.66
2023-03-17T17:22:55.473Z,96134.41
2023-03-17T17:25:22.044Z,96138.88
2023-03-17T17:27:48.516Z,96143.50
2023-03-17T17:30:16.598Z,96135.78
2023-03-17T17:32:43.211Z,96136.53
2023-03-17T17:35:10.348Z,96136.69
2023-03-17T17:37:36.809Z,96137.19
2023-03-17T17:40:03.877Z,96138.19
2023-03-17T17:42:30.614Z,96139.84
2023-03-17T17:44:57.354Z,96139.34
2023-03-17T17:47:23.853Z,96142.31
2023-03-17T17:49:50.530Z,96142.16
2023-03-17T17:52:18.146Z,96147.75
2023-03-17T17:54:44.878Z,96142.84
2023-03-17T17:57:12.514Z,96145.13
2023-03-17T17:59:38.945Z,96143.97
2023-03-17T18:02:05.635Z,96146.44
2023-03-17T18:04:32.153Z,96148.56
2023-03-17T18:06:58.615Z,96152.16
2023-03-17T18:09:25.108Z,96147.75
2023-03-17T18:11:51.550Z,96153.81
2023-03-17T18:14:18.035Z,96161.50
2023-03-17T18:16:44.521Z,96164.13
2023-03-17T18:19:11.592Z,96161.50
2023-03-17T18:21:38.076Z,96149.69
2023-03-17T18:24:04.866Z,96145.56
2023-03-17T18:26:31.804Z,96156.69
2023-03-17T18:28:58.593Z,96142.94
2023-03-17T18:31:27.844Z,96145.06
2023-03-17T18:33:57.173Z,96150.94
2023-03-17T18:36:23.835Z,96149.63
2023-03-17T18:38:50.870Z,96153.84
2023-03-17T18:41:17.794Z,96148.28
2023-03-17T18:43:44.988Z,96157.75
2023-03-17T18:46:12.896Z,96162.94
2023-03-17T18:48:40.127Z,96153.13
2023-03-17T18:51:06.951Z,96158.13
2023-03-17T18:53:34.671Z,96146.19
2023-03-17T18:56:01.724Z,96141.97
2023-03-17T18:58:28.801Z,96144.88
2023-03-17T19:00:59.749Z,96156.00
2023-03-17T19:03:27.458Z,96152.88
2023-03-17T19:05:54.521Z,96154.03
2023-03-17T19:08:21.423Z,96153.97
2023-03-17T19:10:48.303Z,96150.34
2023-03-17T19:13:15.250Z,96158.34
2023-03-17T19:15:42.212Z,96160.44
2023-03-17T19:18:08.704Z,96158.81
2023-03-17T19:20:36.341Z,96162.41
2023-03-17T19:23:04.698Z,96162.69
2023-03-17T19:25:31.621Z,96159.22
2023-03-17T19:27:59.117Z,96155.59
2023-03-17T19:30:25.754Z,96153.59
2023-03-17T19:32:52.180Z,96152.41
2023-03-17T19:35:18.732Z,96153.69
2023-03-17T19:37:45.236Z,96154.66
2023-03-17T19:40:13.334Z,96155.28
2023-03-17T19:42:39.927Z,96154.91
2023-03-17T19:45:06.671Z,96158.97
2023-03-17T19:47:33.098Z,96162.88
2023-03-17T19:49:59.606Z,96161.06
2023-03-17T19:52:26.159Z,96160.69
2023-03-17T19:54:52.771Z,96158.38
2023-03-17T19:57:20.913Z,96148.91
2023-03-17T19:59:47.474Z,96142.34
2023-03-17T20:02:15.104Z,96141.00
2023-03-17T20:04:41.566Z,96142.44
2023-03-17T20:07:08.453Z,96153.31
2023-03-17T20:09:37.822Z,96146.09
2023-03-17T20:12:04.998Z,96163.69
2023-03-17T20:14:32.045Z,96159.59
2023-03-17T20:16:58.553Z,96159.88
2023-03-17T20:19:25.231Z,96165.41
2023-03-17T20:21:52.554Z,96168.84
2023-03-17T20:24:19.196Z,96174.34
2023-03-17T20:26:45.899Z,96170.72
2023-03-17T20:29:14.435Z,96165.94
2023-03-17T20:31:41.998Z,96161.16
2023-03-17T20:34:10.088Z,96161.72
2023-03-17T20:36:37.483Z,96158.47
2023-03-17T20:39:04.686Z,96158.75
2023-03-17T20:41:31.362Z,96158.75
2023-03-17T20:43:58.952Z,96151.22
2023-03-17T20:46:25.859Z,96154.44
2023-03-17T20:48:58.529Z,96153.38
2023-03-17T20:51:26.206Z,96145.16
2023-03-17T20:53:53.539Z,96142.69
2023-03-17T20:56:22.288Z,96135.00
2023-03-17T20:58:48.961Z,96135.28
2023-03-17T21:01:18.235Z,96132.16
2023-03-17T21:03:46.241Z,96135.50
2023-03-17T21:06:12.863Z,96139.22
2023-03-17T21:08:39.365Z,96131.53
2023-03-17T21:11:06.785Z,96137.03
2023-03-17T21:13:33.554Z,96141.56
2023-03-17T21:16:01.476Z,96133.38
2023-03-17T21:18:28.681Z,96134.91
2023-03-17T21:20:55.607Z,96127.53
2023-03-17T21:23:23.165Z,96139.59
2023-03-17T21:25:55.276Z,96131.91
2023-03-17T21:28:22.760Z,96132.22
2023-03-17T21:30:49.921Z,96122.06
2023-03-17T21:33:16.420Z,96124.28
2023-03-17T21:35:43.238Z,96120.31
2023-03-17T21:38:09.847Z,96121.28
2023-03-17T21:40:36.420Z,96116.38
2023-03-17T21:43:03.037Z,96118.44
2023-03-17T21:45:29.572Z,96127.34
2023-03-17T21:47:56.842Z,96112.94
2023-03-17T21:50:23.349Z,96109.84
2023-03-17T21:52:50.017Z,96106.69
2023-03-17T21:55:16.582Z,96103.41
2023-03-17T21:57:43.245Z,96110.41
2023-03-17T22:00:10.496Z,96109.56
2023-03-17T22:02:37.196Z,96107.41
2023-03-17T22:05:04.436Z,96116.75
2023-03-17T22:07:31.637Z,96111.97
2023-03-17T22:09:58.324Z,96109.78
2023-03-17T22:12:24.798Z,96112.78
2023-03-17T22:14:51.370Z,96107.59
2023-03-17T22:17:17.805Z,96105.28
2023-03-17T22:19:44.309Z,96106.50
2023-03-17T22:22:11.315Z,96112.41
2023-03-17T22:24:40.985Z,96109.09
2023-03-17T22:27:07.519Z,96108.16
2023-03-17T22:29:34.040Z,96103.63
2023-03-17T22:32:01.391Z,96097.59
2023-03-17T22:34:28.070Z,96095.13
2023-03-17T22:36:54.519Z,96099.66
2023-03-17T22:39:20.996Z,96098.03
2023-03-17T22:41:47.451Z,96100.22
2023-03-17T22:44:14.217Z,96095.97
2023-03-17T22:46:41.360Z,96099.00
2023-03-17T22:49:07.887Z,96102.69
2023-03-17T22:51:34.624Z,96104.22
2023-03-17T22:54:01.208Z,96112.03
2023-03-17T22:56:27.685Z,96109.56
2023-03-17T22:58:54.472Z,96100.94
2023-03-17T23:01:22.537Z,96096.00
2023-03-17T23:03:49.397Z,96095.44
2023-03-17T23:06:16.196Z,96096.56
2023-03-17T23:08:43.284Z,96093.28
2023-03-17T23:11:11.678Z,96102.06
2023-03-17T23:13:39.809Z,96094.25
2023-03-17T23:16:06.561Z,96092.19
2023-03-17T23:18:32.995Z,96094.66
2023-03-17T23:20:59.555Z,96090.28
2023-03-17T23:23:26.036Z,96097.69
2023-03-17T23:25:52.678Z,96094.66
2023-03-17T23:28:19.520Z,96094.94
2023-03-17T23:30:47.350Z,96094.13
2023-03-17T23:33:14.461Z,96092.88
2023-03-17T23:35:41.007Z,96099.19
2023-03-17T23:38:08.720Z,96090.28
2023-03-17T23:40:36.072Z,96093.28
2023-03-17T23:43:02.520Z,96092.75
2023-03-17T23:45:28.996Z,96100.41
2023-03-17T23:47:57.387Z,96092.06
2023-03-17T23:50:23.862Z,96100.41
2023-03-17T23:52:50.356Z,96090.41
2023-03-17T23:55:17.445Z,96089.47
2023-03-17T23:57:44.879Z,96090.97
